sensor_id;sensor_type;location;lat;lon;timestamp;P1;durP1;ratioP1;P2;durP2;ratioP2
75016;SDS011;63577;39.766;2.720;2024-01-16T00:01:52;19.80;;;15.40;;
75016;SDS011;63577;39.766;2.720;2024-01-16T00:04:17;9.30;;;3.70;;
75016;SDS011;63577;39.766;2.720;2024-01-16T00:06:42;11.10;;;8.10;;
75016;SDS011;63577;39.766;2.720;2024-01-16T00:09:08;10.00;;;6.20;;
75016;SDS011;63577;39.766;2.720;2024-01-16T00:11:41;10.60;;;6.50;;
75016;SDS011;63577;39.766;2.720;2024-01-16T00:14:07;8.60;;;5.70;;
75016;SDS011;63577;39.766;2.720;2024-01-16T00:16:32;10.40;;;5.10;;
75016;SDS011;63577;39.766;2.720;2024-01-16T00:18:58;8.00;;;3.90;;
75016;SDS011;63577;39.766;2.720;2024-01-16T00:21:23;9.50;;;4.20;;
75016;SDS011;63577;39.766;2.720;2024-01-16T00:23:48;7.50;;;4.50;;
75016;SDS011;63577;39.766;2.720;2024-01-16T00:26:20;11.80;;;7.00;;
75016;SDS011;63577;39.766;2.720;2024-01-16T00:28:46;11.50;;;7.40;;
75016;SDS011;63577;39.766;2.720;2024-01-16T00:31:11;19.50;;;13.00;;
75016;SDS011;63577;39.766;2.720;2024-01-16T00:33:37;13.00;;;6.40;;
75016;SDS011;63577;39.766;2.720;2024-01-16T00:36:02;10.30;;;6.10;;
75016;SDS011;63577;39.766;2.720;2024-01-16T00:38:28;27.00;;;17.50;;
75016;SDS011;63577;39.766;2.720;2024-01-16T00:40:53;21.30;;;13.20;;
75016;SDS011;63577;39.766;2.720;2024-01-16T00:43:19;11.40;;;7.60;;
75016;SDS011;63577;39.766;2.720;2024-01-16T00:45:45;13.00;;;8.70;;
75016;SDS011;63577;39.766;2.720;2024-01-16T00:48:11;9.00;;;6.30;;
75016;SDS011;63577;39.766;2.720;2024-01-16T00:50:39;9.50;;;5.80;;
75016;SDS011;63577;39.766;2.720;2024-01-16T00:53:04;11.70;;;5.80;;
75016;SDS011;63577;39.766;2.720;2024-01-16T00:55:29;10.80;;;7.40;;
75016;SDS011;63577;39.766;2.720;2024-01-16T00:57:55;10.30;;;5.30;;
75016;SDS011;63577;39.766;2.720;2024-01-16T01:00:20;8.50;;;4.20;;
75016;SDS011;63577;39.766;2.720;2024-01-16T01:02:45;6.60;;;3.70;;
75016;SDS011;63577;39.766;2.720;2024-01-16T01:05:11;5.40;;;2.50;;
75016;SDS011;63577;39.766;2.720;2024-01-16T01:07:36;8.20;;;4.30;;
75016;SDS011;63577;39.766;2.720;2024-01-16T01:10:02;14.90;;;5.90;;
75016;SDS011;63577;39.766;2.720;2024-01-16T01:12:27;10.50;;;4.40;;
75016;SDS011;63577;39.766;2.720;2024-01-16T01:14:53;8.70;;;3.80;;
75016;SDS011;63577;39.766;2.720;2024-01-16T01:17:18;9.80;;;4.60;;
75016;SDS011;63577;39.766;2.720;2024-01-16T01:19:44;8.10;;;3.60;;
75016;SDS011;63577;39.766;2.720;2024-01-16T01:22:11;7.90;;;3.80;;
75016;SDS011;63577;39.766;2.720;2024-01-16T01:24:36;7.80;;;3.60;;
75016;SDS011;63577;39.766;2.720;2024-01-16T01:27:02;7.30;;;3.50;;
75016;SDS011;63577;39.766;2.720;2024-01-16T01:29:27;6.80;;;3.00;;
75016;SDS011;63577;39.766;2.720;2024-01-16T01:31:52;6.40;;;2.90;;
75016;SDS011;63577;39.766;2.720;2024-01-16T01:34:18;5.60;;;2.40;;
75016;SDS011;63577;39.766;2.720;2024-01-16T01:36:43;7.00;;;2.40;;
75016;SDS011;63577;39.766;2.720;2024-01-16T01:39:09;5.20;;;2.10;;
75016;SDS011;63577;39.766;2.720;2024-01-16T01:41:36;7.50;;;3.90;;
75016;SDS011;63577;39.766;2.720;2024-01-16T01:44:01;9.90;;;3.80;;
75016;SDS011;63577;39.766;2.720;2024-01-16T01:46:26;8.50;;;4.20;;
75016;SDS011;63577;39.766;2.720;2024-01-16T01:48:52;5.60;;;3.30;;
75016;SDS011;63577;39.766;2.720;2024-01-16T01:51:18;6.70;;;3.00;;
75016;SDS011;63577;39.766;2.720;2024-01-16T01:53:44;5.40;;;2.90;;
75016;SDS011;63577;39.766;2.720;2024-01-16T01:56:11;4.90;;;2.10;;
75016;SDS011;63577;39.766;2.720;2024-01-16T01:58:37;4.40;;;1.80;;
75016;SDS011;63577;39.766;2.720;2024-01-16T02:01:06;14.40;;;7.80;;
75016;SDS011;63577;39.766;2.720;2024-01-16T02:03:44;13.30;;;8.30;;
75016;SDS011;63577;39.766;2.720;2024-01-16T02:06:10;12.40;;;6.90;;
75016;SDS011;63577;39.766;2.720;2024-01-16T02:08:36;13.00;;;7.30;;
75016;SDS011;63577;39.766;2.720;2024-01-16T02:11:02;12.30;;;7.80;;
75016;SDS011;63577;39.766;2.720;2024-01-16T02:13:27;11.00;;;6.40;;
75016;SDS011;63577;39.766;2.720;2024-01-16T02:15:53;9.80;;;6.40;;
75016;SDS011;63577;39.766;2.720;2024-01-16T02:18:18;9.30;;;4.90;;
75016;SDS011;63577;39.766;2.720;2024-01-16T02:20:44;8.40;;;4.80;;
75016;SDS011;63577;39.766;2.720;2024-01-16T02:23:11;14.20;;;6.80;;
75016;SDS011;63577;39.766;2.720;2024-01-16T02:25:38;13.80;;;6.10;;
75016;SDS011;63577;39.766;2.720;2024-01-16T02:28:04;15.60;;;5.90;;
75016;SDS011;63577;39.766;2.720;2024-01-16T02:30:29;12.70;;;4.90;;
75016;SDS011;63577;39.766;2.720;2024-01-16T02:32:55;10.20;;;4.70;;
75016;SDS011;63577;39.766;2.720;2024-01-16T02:35:20;8.30;;;4.30;;
75016;SDS011;63577;39.766;2.720;2024-01-16T02:37:45;9.50;;;4.10;;
75016;SDS011;63577;39.766;2.720;2024-01-16T02:40:11;8.50;;;3.80;;
75016;SDS011;63577;39.766;2.720;2024-01-16T02:42:36;8.50;;;4.20;;
75016;SDS011;63577;39.766;2.720;2024-01-16T02:45:05;6.80;;;3.40;;
75016;SDS011;63577;39.766;2.720;2024-01-16T02:47:30;6.10;;;2.90;;
75016;SDS011;63577;39.766;2.720;2024-01-16T02:49:56;5.40;;;2.70;;
75016;SDS011;63577;39.766;2.720;2024-01-16T02:52:22;9.20;;;3.90;;
75016;SDS011;63577;39.766;2.720;2024-01-16T02:54:47;7.40;;;4.00;;
75016;SDS011;63577;39.766;2.720;2024-01-16T02:57:13;8.80;;;4.00;;
75016;SDS011;63577;39.766;2.720;2024-01-16T02:59:38;9.80;;;5.10;;
75016;SDS011;63577;39.766;2.720;2024-01-16T03:02:04;8.20;;;4.80;;
75016;SDS011;63577;39.766;2.720;2024-01-16T03:04:29;11.00;;;4.80;;
75016;SDS011;63577;39.766;2.720;2024-01-16T03:06:55;8.50;;;4.20;;
75016;SDS011;63577;39.766;2.720;2024-01-16T03:09:20;8.50;;;4.60;;
75016;SDS011;63577;39.766;2.720;2024-01-16T03:11:45;8.60;;;4.60;;
75016;SDS011;63577;39.766;2.720;2024-01-16T03:14:12;8.50;;;4.50;;
75016;SDS011;63577;39.766;2.720;2024-01-16T03:16:38;8.70;;;4.50;;
75016;SDS011;63577;39.766;2.720;2024-01-16T03:19:03;6.30;;;3.30;;
75016;SDS011;63577;39.766;2.720;2024-01-16T03:21:29;6.00;;;2.90;;
75016;SDS011;63577;39.766;2.720;2024-01-16T03:23:54;4.90;;;2.40;;
75016;SDS011;63577;39.766;2.720;2024-01-16T03:26:20;5.70;;;2.70;;
75016;SDS011;63577;39.766;2.720;2024-01-16T03:28:45;4.30;;;1.30;;
75016;SDS011;63577;39.766;2.720;2024-01-16T03:31:12;4.60;;;2.00;;
75016;SDS011;63577;39.766;2.720;2024-01-16T03:33:37;5.20;;;1.80;;
75016;SDS011;63577;39.766;2.720;2024-01-16T03:36:07;5.00;;;2.00;;
75016;SDS011;63577;39.766;2.720;2024-01-16T03:38:32;5.80;;;3.20;;
75016;SDS011;63577;39.766;2.720;2024-01-16T03:40:59;6.80;;;3.90;;
75016;SDS011;63577;39.766;2.720;2024-01-16T03:43:24;6.60;;;2.90;;
75016;SDS011;63577;39.766;2.720;2024-01-16T03:45:50;7.50;;;3.20;;
75016;SDS011;63577;39.766;2.720;2024-01-16T03:48:15;6.80;;;3.80;;
75016;SDS011;63577;39.766;2.720;2024-01-16T03:50:40;7.10;;;3.10;;
75016;SDS011;63577;39.766;2.720;2024-01-16T03:53:09;6.50;;;3.10;;
75016;SDS011;63577;39.766;2.720;2024-01-16T03:55:34;6.50;;;3.10;;
75016;SDS011;63577;39.766;2.720;2024-01-16T03:57:59;6.80;;;3.10;;
75016;SDS011;63577;39.766;2.720;2024-01-16T04:00:25;5.70;;;3.20;;
75016;SDS011;63577;39.766;2.720;2024-01-16T04:02:50;7.50;;;3.50;;
75016;SDS011;63577;39.766;2.720;2024-01-16T04:05:15;6.10;;;2.60;;
75016;SDS011;63577;39.766;2.720;2024-01-16T04:07:41;5.50;;;2.60;;
75016;SDS011;63577;39.766;2.720;2024-01-16T04:10:06;7.20;;;2.70;;
75016;SDS011;63577;39.766;2.720;2024-01-16T04:12:32;5.70;;;2.70;;
75016;SDS011;63577;39.766;2.720;2024-01-16T04:14:57;5.20;;;2.70;;
75016;SDS011;63577;39.766;2.720;2024-01-16T04:17:22;5.20;;;2.50;;
75016;SDS011;63577;39.766;2.720;2024-01-16T04:19:48;4.90;;;2.50;;
75016;SDS011;63577;39.766;2.720;2024-01-16T04:22:13;4.40;;;2.10;;
75016;SDS011;63577;39.766;2.720;2024-01-16T04:24:38;6.80;;;2.70;;
75016;SDS011;63577;39.766;2.720;2024-01-16T04:27:04;5.10;;;2.30;;
75016;SDS011;63577;39.766;2.720;2024-01-16T04:29:29;5.00;;;2.30;;
75016;SDS011;63577;39.766;2.720;2024-01-16T04:31:55;5.20;;;2.10;;
75016;SDS011;63577;39.766;2.720;2024-01-16T04:34:20;4.40;;;1.80;;
75016;SDS011;63577;39.766;2.720;2024-01-16T04:36:45;4.90;;;1.50;;
75016;SDS011;63577;39.766;2.720;2024-01-16T04:39:11;4.20;;;1.60;;
75016;SDS011;63577;39.766;2.720;2024-01-16T04:41:37;4.70;;;2.10;;
75016;SDS011;63577;39.766;2.720;2024-01-16T04:44:02;5.40;;;2.00;;
75016;SDS011;63577;39.766;2.720;2024-01-16T04:46:28;5.70;;;2.40;;
75016;SDS011;63577;39.766;2.720;2024-01-16T04:48:53;6.30;;;2.60;;
75016;SDS011;63577;39.766;2.720;2024-01-16T04:51:18;8.40;;;2.90;;
75016;SDS011;63577;39.766;2.720;2024-01-16T04:53:44;5.50;;;3.00;;
75016;SDS011;63577;39.766;2.720;2024-01-16T04:56:09;5.00;;;2.70;;
75016;SDS011;63577;39.766;2.720;2024-01-16T04:58:34;6.70;;;3.20;;
75016;SDS011;63577;39.766;2.720;2024-01-16T05:01:00;5.80;;;3.30;;
75016;SDS011;63577;39.766;2.720;2024-01-16T05:03:25;6.50;;;3.10;;
75016;SDS011;63577;39.766;2.720;2024-01-16T05:05:51;5.70;;;2.60;;
75016;SDS011;63577;39.766;2.720;2024-01-16T05:08:16;5.00;;;2.60;;
75016;SDS011;63577;39.766;2.720;2024-01-16T05:10:42;5.80;;;2.60;;
75016;SDS011;63577;39.766;2.720;2024-01-16T05:13:07;5.30;;;2.50;;
75016;SDS011;63577;39.766;2.720;2024-01-16T05:15:32;6.00;;;2.80;;
75016;SDS011;63577;39.766;2.720;2024-01-16T05:17:58;4.50;;;2.20;;
75016;SDS011;63577;39.766;2.720;2024-01-16T05:20:23;5.50;;;2.60;;
75016;SDS011;63577;39.766;2.720;2024-01-16T05:22:48;5.60;;;2.70;;
75016;SDS011;63577;39.766;2.720;2024-01-16T05:25:14;7.70;;;3.30;;
75016;SDS011;63577;39.766;2.720;2024-01-16T05:27:39;6.90;;;3.10;;
75016;SDS011;63577;39.766;2.720;2024-01-16T05:30:05;6.30;;;2.50;;
75016;SDS011;63577;39.766;2.720;2024-01-16T05:32:30;8.90;;;3.70;;
75016;SDS011;63577;39.766;2.720;2024-01-16T05:34:56;6.40;;;2.50;;
75016;SDS011;63577;39.766;2.720;2024-01-16T05:37:21;6.00;;;2.90;;
75016;SDS011;63577;39.766;2.720;2024-01-16T05:39:46;6.60;;;2.50;;
75016;SDS011;63577;39.766;2.720;2024-01-16T05:42:12;5.20;;;2.20;;
75016;SDS011;63577;39.766;2.720;2024-01-16T05:44:37;5.50;;;2.50;;
75016;SDS011;63577;39.766;2.720;2024-01-16T05:47:03;5.20;;;2.30;;
75016;SDS011;63577;39.766;2.720;2024-01-16T05:49:29;4.70;;;2.30;;
75016;SDS011;63577;39.766;2.720;2024-01-16T05:51:54;5.40;;;2.30;;
75016;SDS011;63577;39.766;2.720;2024-01-16T05:54:19;5.40;;;2.20;;
75016;SDS011;63577;39.766;2.720;2024-01-16T05:56:45;5.10;;;2.20;;
75016;SDS011;63577;39.766;2.720;2024-01-16T05:59:10;5.00;;;2.10;;
75016;SDS011;63577;39.766;2.720;2024-01-16T06:01:35;6.10;;;2.30;;
75016;SDS011;63577;39.766;2.720;2024-01-16T06:04:01;8.90;;;4.60;;
75016;SDS011;63577;39.766;2.720;2024-01-16T06:06:26;8.50;;;4.90;;
75016;SDS011;63577;39.766;2.720;2024-01-16T06:08:51;7.90;;;4.50;;
75016;SDS011;63577;39.766;2.720;2024-01-16T06:11:17;8.30;;;4.80;;
75016;SDS011;63577;39.766;2.720;2024-01-16T06:13:44;9.10;;;4.20;;
75016;SDS011;63577;39.766;2.720;2024-01-16T06:16:10;7.60;;;4.30;;
75016;SDS011;63577;39.766;2.720;2024-01-16T06:18:35;8.20;;;3.70;;
75016;SDS011;63577;39.766;2.720;2024-01-16T06:21:01;6.50;;;3.30;;
75016;SDS011;63577;39.766;2.720;2024-01-16T06:23:26;7.40;;;3.20;;
75016;SDS011;63577;39.766;2.720;2024-01-16T06:25:52;6.30;;;3.20;;
75016;SDS011;63577;39.766;2.720;2024-01-16T06:28:17;6.20;;;2.90;;
75016;SDS011;63577;39.766;2.720;2024-01-16T06:30:43;6.90;;;4.60;;
75016;SDS011;63577;39.766;2.720;2024-01-16T06:33:08;5.70;;;3.10;;
75016;SDS011;63577;39.766;2.720;2024-01-16T06:35:33;5.90;;;2.90;;
75016;SDS011;63577;39.766;2.720;2024-01-16T06:37:59;5.70;;;3.00;;
75016;SDS011;63577;39.766;2.720;2024-01-16T06:40:24;8.20;;;3.60;;
75016;SDS011;63577;39.766;2.720;2024-01-16T06:42:49;6.10;;;3.70;;
75016;SDS011;63577;39.766;2.720;2024-01-16T06:45:15;6.20;;;3.50;;
75016;SDS011;63577;39.766;2.720;2024-01-16T06:47:41;7.90;;;3.80;;
75016;SDS011;63577;39.766;2.720;2024-01-16T06:50:07;10.00;;;5.60;;
75016;SDS011;63577;39.766;2.720;2024-01-16T06:52:33;11.20;;;6.40;;
75016;SDS011;63577;39.766;2.720;2024-01-16T06:54:58;9.00;;;4.90;;
75016;SDS011;63577;39.766;2.720;2024-01-16T06:57:23;8.10;;;4.70;;
75016;SDS011;63577;39.766;2.720;2024-01-16T06:59:49;10.20;;;4.30;;
75016;SDS011;63577;39.766;2.720;2024-01-16T07:02:14;7.80;;;4.40;;
75016;SDS011;63577;39.766;2.720;2024-01-16T07:04:40;6.30;;;3.40;;
75016;SDS011;63577;39.766;2.720;2024-01-16T07:07:05;7.00;;;3.10;;
75016;SDS011;63577;39.766;2.720;2024-01-16T07:09:31;7.30;;;3.40;;
75016;SDS011;63577;39.766;2.720;2024-01-16T07:11:56;6.20;;;3.10;;
75016;SDS011;63577;39.766;2.720;2024-01-16T07:14:22;8.50;;;5.30;;
75016;SDS011;63577;39.766;2.720;2024-01-16T07:16:47;8.10;;;4.80;;
75016;SDS011;63577;39.766;2.720;2024-01-16T07:19:12;6.30;;;3.50;;
75016;SDS011;63577;39.766;2.720;2024-01-16T07:21:38;8.90;;;3.60;;
75016;SDS011;63577;39.766;2.720;2024-01-16T07:24:03;6.90;;;3.30;;
75016;SDS011;63577;39.766;2.720;2024-01-16T07:26:29;10.40;;;4.00;;
75016;SDS011;63577;39.766;2.720;2024-01-16T07:28:54;8.20;;;4.20;;
75016;SDS011;63577;39.766;2.720;2024-01-16T07:31:20;13.40;;;6.10;;
75016;SDS011;63577;39.766;2.720;2024-01-16T07:33:45;10.40;;;6.30;;
75016;SDS011;63577;39.766;2.720;2024-01-16T07:36:11;13.20;;;7.00;;
75016;SDS011;63577;39.766;2.720;2024-01-16T07:38:37;11.20;;;7.00;;
75016;SDS011;63577;39.766;2.720;2024-01-16T07:41:02;9.30;;;5.80;;
75016;SDS011;63577;39.766;2.720;2024-01-16T07:43:28;10.10;;;6.50;;
75016;SDS011;63577;39.766;2.720;2024-01-16T07:45:55;10.20;;;5.40;;
75016;SDS011;63577;39.766;2.720;2024-01-16T07:48:20;8.30;;;5.20;;
75016;SDS011;63577;39.766;2.720;2024-01-16T07:50:45;9.30;;;4.50;;
75016;SDS011;63577;39.766;2.720;2024-01-16T07:53:11;14.70;;;5.10;;
75016;SDS011;63577;39.766;2.720;2024-01-16T07:55:36;24.40;;;5.90;;
75016;SDS011;63577;39.766;2.720;2024-01-16T07:58:02;8.10;;;3.80;;
75016;SDS011;63577;39.766;2.720;2024-01-16T08:00:29;10.70;;;5.00;;
75016;SDS011;63577;39.766;2.720;2024-01-16T08:02:54;10.80;;;5.20;;
75016;SDS011;63577;39.766;2.720;2024-01-16T08:05:19;12.70;;;5.20;;
75016;SDS011;63577;39.766;2.720;2024-01-16T08:07:47;11.80;;;6.50;;
75016;SDS011;63577;39.766;2.720;2024-01-16T08:10:12;15.30;;;7.40;;
75016;SDS011;63577;39.766;2.720;2024-01-16T08:12:37;13.10;;;7.30;;
75016;SDS011;63577;39.766;2.720;2024-01-16T08:15:04;14.00;;;8.20;;
75016;SDS011;63577;39.766;2.720;2024-01-16T08:17:29;14.00;;;7.70;;
75016;SDS011;63577;39.766;2.720;2024-01-16T08:19:54;11.80;;;6.50;;
75016;SDS011;63577;39.766;2.720;2024-01-16T08:22:20;12.30;;;6.80;;
75016;SDS011;63577;39.766;2.720;2024-01-16T08:24:45;13.60;;;7.40;;
75016;SDS011;63577;39.766;2.720;2024-01-16T08:27:10;14.40;;;6.80;;
75016;SDS011;63577;39.766;2.720;2024-01-16T08:29:36;15.40;;;7.90;;
75016;SDS011;63577;39.766;2.720;2024-01-16T08:32:01;16.50;;;8.60;;
75016;SDS011;63577;39.766;2.720;2024-01-16T08:34:26;16.80;;;8.50;;
75016;SDS011;63577;39.766;2.720;2024-01-16T08:36:52;15.70;;;8.40;;
75016;SDS011;63577;39.766;2.720;2024-01-16T08:39:21;15.80;;;10.00;;
75016;SDS011;63577;39.766;2.720;2024-01-16T08:41:47;15.40;;;8.80;;
75016;SDS011;63577;39.766;2.720;2024-01-16T08:44:12;14.10;;;8.90;;
75016;SDS011;63577;39.766;2.720;2024-01-16T08:46:38;14.40;;;8.80;;
75016;SDS011;63577;39.766;2.720;2024-01-16T08:49:03;15.90;;;9.50;;
75016;SDS011;63577;39.766;2.720;2024-01-16T08:51:28;16.90;;;9.60;;
75016;SDS011;63577;39.766;2.720;2024-01-16T08:53:54;14.90;;;8.70;;
75016;SDS011;63577;39.766;2.720;2024-01-16T08:56:19;15.90;;;8.60;;
75016;SDS011;63577;39.766;2.720;2024-01-16T08:58:45;18.00;;;9.70;;
75016;SDS011;63577;39.766;2.720;2024-01-16T09:01:11;17.30;;;10.90;;
75016;SDS011;63577;39.766;2.720;2024-01-16T09:03:36;17.50;;;10.50;;
75016;SDS011;63577;39.766;2.720;2024-01-16T09:06:02;16.50;;;10.10;;
75016;SDS011;63577;39.766;2.720;2024-01-16T09:08:27;14.40;;;9.50;;
75016;SDS011;63577;39.766;2.720;2024-01-16T09:10:53;16.00;;;10.40;;
75016;SDS011;63577;39.766;2.720;2024-01-16T09:13:19;16.20;;;9.90;;
75016;SDS011;63577;39.766;2.720;2024-01-16T09:15:48;20.00;;;12.20;;
75016;SDS011;63577;39.766;2.720;2024-01-16T09:18:14;21.20;;;13.10;;
75016;SDS011;63577;39.766;2.720;2024-01-16T09:20:41;16.20;;;10.50;;
75016;SDS011;63577;39.766;2.720;2024-01-16T09:23:06;18.20;;;11.10;;
75016;SDS011;63577;39.766;2.720;2024-01-16T09:25:32;15.70;;;9.70;;
75016;SDS011;63577;39.766;2.720;2024-01-16T09:27:57;14.20;;;9.20;;
75016;SDS011;63577;39.766;2.720;2024-01-16T09:30:22;16.80;;;10.10;;
75016;SDS011;63577;39.766;2.720;2024-01-16T09:32:48;15.80;;;9.80;;
75016;SDS011;63577;39.766;2.720;2024-01-16T09:35:14;14.40;;;9.70;;
75016;SDS011;63577;39.766;2.720;2024-01-16T09:37:39;17.70;;;9.50;;
75016;SDS011;63577;39.766;2.720;2024-01-16T09:40:05;19.70;;;11.20;;
75016;SDS011;63577;39.766;2.720;2024-01-16T09:42:33;17.60;;;9.70;;
75016;SDS011;63577;39.766;2.720;2024-01-16T09:45:02;20.80;;;9.60;;
75016;SDS011;63577;39.766;2.720;2024-01-16T09:47:31;18.20;;;9.10;;
75016;SDS011;63577;39.766;2.720;2024-01-16T09:49:59;16.10;;;9.40;;
75016;SDS011;63577;39.766;2.720;2024-01-16T09:52:25;12.60;;;6.60;;
75016;SDS011;63577;39.766;2.720;2024-01-16T09:54:51;11.50;;;6.60;;
75016;SDS011;63577;39.766;2.720;2024-01-16T09:57:18;10.10;;;5.80;;
75016;SDS011;63577;39.766;2.720;2024-01-16T09:59:43;12.40;;;5.30;;
75016;SDS011;63577;39.766;2.720;2024-01-16T10:02:10;12.00;;;6.60;;
75016;SDS011;63577;39.766;2.720;2024-01-16T10:04:35;15.80;;;10.80;;
75016;SDS011;63577;39.766;2.720;2024-01-16T10:07:01;14.50;;;10.30;;
75016;SDS011;63577;39.766;2.720;2024-01-16T10:09:27;21.40;;;13.60;;
75016;SDS011;63577;39.766;2.720;2024-01-16T10:11:52;17.90;;;10.80;;
75016;SDS011;63577;39.766;2.720;2024-01-16T10:14:19;10.60;;;7.00;;
75016;SDS011;63577;39.766;2.720;2024-01-16T10:19:47;11.30;;;6.80;;
75016;SDS011;63577;39.766;2.720;2024-01-16T10:22:13;8.40;;;5.10;;
75016;SDS011;63577;39.766;2.720;2024-01-16T10:24:44;9.30;;;6.30;;
75016;SDS011;63577;39.766;2.720;2024-01-16T10:27:10;8.10;;;4.90;;
75016;SDS011;63577;39.766;2.720;2024-01-16T10:29:35;7.70;;;4.80;;
75016;SDS011;63577;39.766;2.720;2024-01-16T10:32:01;8.30;;;4.60;;
75016;SDS011;63577;39.766;2.720;2024-01-16T10:34:27;7.80;;;5.10;;
75016;SDS011;63577;39.766;2.720;2024-01-16T10:36:58;9.00;;;4.70;;
75016;SDS011;63577;39.766;2.720;2024-01-16T10:39:24;12.30;;;9.20;;
75016;SDS011;63577;39.766;2.720;2024-01-16T10:41:58;12.10;;;7.50;;
75016;SDS011;63577;39.766;2.720;2024-01-16T10:44:24;11.60;;;8.10;;
75016;SDS011;63577;39.766;2.720;2024-01-16T10:46:50;10.70;;;8.50;;
75016;SDS011;63577;39.766;2.720;2024-01-16T10:49:15;10.40;;;7.80;;
75016;SDS011;63577;39.766;2.720;2024-01-16T10:51:44;10.40;;;6.80;;
75016;SDS011;63577;39.766;2.720;2024-01-16T10:54:13;11.50;;;9.20;;
75016;SDS011;63577;39.766;2.720;2024-01-16T10:56:45;15.90;;;13.90;;
75016;SDS011;63577;39.766;2.720;2024-01-16T11:01:49;13.00;;;9.80;;
75016;SDS011;63577;39.766;2.720;2024-01-16T11:04:16;7.70;;;4.90;;
75016;SDS011;63577;39.766;2.720;2024-01-16T11:06:42;6.70;;;4.80;;
75016;SDS011;63577;39.766;2.720;2024-01-16T11:09:08;8.90;;;6.60;;
75016;SDS011;63577;39.766;2.720;2024-01-16T11:11:34;8.00;;;4.40;;
75016;SDS011;63577;39.766;2.720;2024-01-16T11:14:01;13.40;;;10.20;;
75016;SDS011;63577;39.766;2.720;2024-01-16T11:16:27;7.60;;;4.30;;
75016;SDS011;63577;39.766;2.720;2024-01-16T11:18:53;6.50;;;3.40;;
75016;SDS011;63577;39.766;2.720;2024-01-16T11:21:19;5.70;;;2.70;;
75016;SDS011;63577;39.766;2.720;2024-01-16T11:23:45;5.80;;;2.70;;
75016;SDS011;63577;39.766;2.720;2024-01-16T11:28:58;5.50;;;2.50;;
75016;SDS011;63577;39.766;2.720;2024-01-16T11:31:34;5.40;;;2.50;;
75016;SDS011;63577;39.766;2.720;2024-01-16T11:34:00;4.70;;;1.90;;
75016;SDS011;63577;39.766;2.720;2024-01-16T11:39:10;5.40;;;2.00;;
75016;SDS011;63577;39.766;2.720;2024-01-16T11:41:51;5.60;;;2.10;;
75016;SDS011;63577;39.766;2.720;2024-01-16T11:47:02;6.90;;;3.80;;
75016;SDS011;63577;39.766;2.720;2024-01-16T11:49:29;8.80;;;3.80;;
75016;SDS011;63577;39.766;2.720;2024-01-16T11:51:57;5.10;;;2.50;;
75016;SDS011;63577;39.766;2.720;2024-01-16T11:54:23;5.70;;;2.40;;
75016;SDS011;63577;39.766;2.720;2024-01-16T12:01:43;5.70;;;2.00;;
75016;SDS011;63577;39.766;2.720;2024-01-16T12:04:09;5.90;;;1.60;;
75016;SDS011;63577;39.766;2.720;2024-01-16T12:06:35;4.00;;;1.70;;
75016;SDS011;63577;39.766;2.720;2024-01-16T12:09:34;5.80;;;2.60;;
75016;SDS011;63577;39.766;2.720;2024-01-16T12:11:56;4.70;;;1.70;;
75016;SDS011;63577;39.766;2.720;2024-01-16T12:14:23;5.10;;;2.40;;
75016;SDS011;63577;39.766;2.720;2024-01-16T12:16:48;7.80;;;3.20;;
75016;SDS011;63577;39.766;2.720;2024-01-16T12:19:13;6.90;;;2.60;;
75016;SDS011;63577;39.766;2.720;2024-01-16T12:21:39;7.00;;;2.20;;
75016;SDS011;63577;39.766;2.720;2024-01-16T12:24:05;7.40;;;2.10;;
75016;SDS011;63577;39.766;2.720;2024-01-16T12:26:30;5.10;;;1.70;;
75016;SDS011;63577;39.766;2.720;2024-01-16T12:28:57;3.70;;;1.30;;
75016;SDS011;63577;39.766;2.720;2024-01-16T12:31:22;5.20;;;1.50;;
75016;SDS011;63577;39.766;2.720;2024-01-16T12:33:50;8.30;;;4.40;;
75016;SDS011;63577;39.766;2.720;2024-01-16T12:36:16;3.80;;;1.30;;
75016;SDS011;63577;39.766;2.720;2024-01-16T12:38:42;5.40;;;2.40;;
75016;SDS011;63577;39.766;2.720;2024-01-16T12:41:08;5.30;;;1.60;;
75016;SDS011;63577;39.766;2.720;2024-01-16T12:43:34;8.70;;;3.10;;
75016;SDS011;63577;39.766;2.720;2024-01-16T12:46:00;4.20;;;1.40;;
75016;SDS011;63577;39.766;2.720;2024-01-16T12:48:25;4.60;;;1.40;;
75016;SDS011;63577;39.766;2.720;2024-01-16T12:50:51;4.80;;;1.70;;
75016;SDS011;63577;39.766;2.720;2024-01-16T12:53:24;5.20;;;1.60;;
75016;SDS011;63577;39.766;2.720;2024-01-16T12:55:56;5.50;;;1.90;;
75016;SDS011;63577;39.766;2.720;2024-01-16T12:58:22;4.40;;;1.70;;
75016;SDS011;63577;39.766;2.720;2024-01-16T13:00:53;5.70;;;1.80;;
75016;SDS011;63577;39.766;2.720;2024-01-16T13:03:19;4.20;;;1.40;;
75016;SDS011;63577;39.766;2.720;2024-01-16T13:05:46;5.20;;;2.50;;
75016;SDS011;63577;39.766;2.720;2024-01-16T13:08:19;6.00;;;3.00;;
75016;SDS011;63577;39.766;2.720;2024-01-16T13:10:46;20.40;;;8.10;;
75016;SDS011;63577;39.766;2.720;2024-01-16T13:13:13;49.00;;;19.10;;
75016;SDS011;63577;39.766;2.720;2024-01-16T13:15:39;41.10;;;17.40;;
75016;SDS011;63577;39.766;2.720;2024-01-16T13:18:04;35.00;;;17.00;;
75016;SDS011;63577;39.766;2.720;2024-01-16T13:20:30;80.70;;;31.00;;
75016;SDS011;63577;39.766;2.720;2024-01-16T13:22:56;124.20;;;46.90;;
75016;SDS011;63577;39.766;2.720;2024-01-16T13:25:21;217.60;;;88.00;;
75016;SDS011;63577;39.766;2.720;2024-01-16T13:27:46;85.30;;;34.30;;
75016;SDS011;63577;39.766;2.720;2024-01-16T13:30:12;34.90;;;14.10;;
75016;SDS011;63577;39.766;2.720;2024-01-16T13:32:37;27.10;;;10.00;;
75016;SDS011;63577;39.766;2.720;2024-01-16T13:35:03;14.40;;;5.80;;
75016;SDS011;63577;39.766;2.720;2024-01-16T13:37:32;30.30;;;13.40;;
75016;SDS011;63577;39.766;2.720;2024-01-16T13:39:58;30.70;;;13.80;;
75016;SDS011;63577;39.766;2.720;2024-01-16T13:42:23;26.60;;;12.30;;
75016;SDS011;63577;39.766;2.720;2024-01-16T13:44:48;36.00;;;17.20;;
75016;SDS011;63577;39.766;2.720;2024-01-16T13:47:14;23.50;;;11.40;;
75016;SDS011;63577;39.766;2.720;2024-01-16T13:49:40;28.30;;;13.20;;
75016;SDS011;63577;39.766;2.720;2024-01-16T13:52:06;65.30;;;34.90;;
75016;SDS011;63577;39.766;2.720;2024-01-16T13:54:32;13.40;;;6.50;;
75016;SDS011;63577;39.766;2.720;2024-01-16T13:56:57;9.30;;;5.20;;
75016;SDS011;63577;39.766;2.720;2024-01-16T13:59:22;9.40;;;6.70;;
75016;SDS011;63577;39.766;2.720;2024-01-16T14:01:48;6.90;;;3.20;;
75016;SDS011;63577;39.766;2.720;2024-01-16T14:04:13;9.20;;;7.20;;
75016;SDS011;63577;39.766;2.720;2024-01-16T14:06:38;5.10;;;2.90;;
75016;SDS011;63577;39.766;2.720;2024-01-16T14:09:04;4.70;;;1.80;;
75016;SDS011;63577;39.766;2.720;2024-01-16T14:11:32;5.70;;;1.60;;
75016;SDS011;63577;39.766;2.720;2024-01-16T14:13:58;4.00;;;1.30;;
75016;SDS011;63577;39.766;2.720;2024-01-16T14:16:23;3.50;;;1.40;;
75016;SDS011;63577;39.766;2.720;2024-01-16T14:18:48;5.40;;;1.10;;
75016;SDS011;63577;39.766;2.720;2024-01-16T14:21:14;3.70;;;1.40;;
75016;SDS011;63577;39.766;2.720;2024-01-16T14:23:39;4.20;;;2.70;;
75016;SDS011;63577;39.766;2.720;2024-01-16T14:26:04;4.90;;;1.10;;
75016;SDS011;63577;39.766;2.720;2024-01-16T14:28:30;4.00;;;1.20;;
75016;SDS011;63577;39.766;2.720;2024-01-16T14:30:55;3.60;;;1.10;;
75016;SDS011;63577;39.766;2.720;2024-01-16T14:33:21;5.30;;;3.20;;
75016;SDS011;63577;39.766;2.720;2024-01-16T14:35:47;3.90;;;1.80;;
75016;SDS011;63577;39.766;2.720;2024-01-16T14:38:13;5.70;;;1.50;;
75016;SDS011;63577;39.766;2.720;2024-01-16T14:40:39;4.10;;;1.70;;
75016;SDS011;63577;39.766;2.720;2024-01-16T14:43:05;4.30;;;1.30;;
75016;SDS011;63577;39.766;2.720;2024-01-16T14:45:31;3.30;;;1.40;;
75016;SDS011;63577;39.766;2.720;2024-01-16T14:47:56;3.30;;;1.10;;
75016;SDS011;63577;39.766;2.720;2024-01-16T14:50:22;6.50;;;2.10;;
75016;SDS011;63577;39.766;2.720;2024-01-16T14:52:49;3.60;;;1.20;;